• Join FlightAware (Why Join?)
  • Login
  • US Flag 
 
12:39PM EST


 

Airport Tracker/Info


-or-


 

Live Flight TrackerFlight Track Log ✈ CSN3546 ✈ 11-Dec-2013 ✈ ZSCN / KHN - ZGGG / CAN

Flight Track Log - Related Links

Times and Time Zones

All times are in EST time to prevent confusion due to time zone crossing. See the CSN3546 flight status page for this flight to view local times or setup timezone preferences in your user account.

Time Position Orientation Groundspeed Altitude Reporting Facility
EST Latitude Longitude Course Direction KTS MPH feet Rate Location/Type
09:40AM 28.7676 115.8512 204° Southwest  Level Estimated
09:41AM 28.6702 115.8026 204° Southwest  Level Estimated
09:42AM 28.5727 115.7540 204° Southwest  Level Estimated
09:43AM 28.4753 115.7055 204° Southwest  Level Estimated
09:44AM 28.3778 115.6571 204° Southwest  Level Estimated
09:45AM 28.2803 115.6088 204° Southwest  Level Estimated
09:46AM 28.1828 115.5606 204° Southwest  Level Estimated
09:47AM 28.0852 115.5124 204° Southwest  Level Estimated
09:48AM 27.9877 115.4644 204° Southwest  Level Estimated
09:49AM 27.8901 115.4164 203° Southwest  Level Estimated
09:50AM 27.7925 115.3685 203° Southwest  Level Estimated
09:51AM 27.6950 115.3207 203° Southwest  Level Estimated
09:52AM 27.5973 115.2730 203° Southwest  Level Estimated
09:53AM 27.4997 115.2254 203° Southwest  Level Estimated
09:54AM 27.4021 115.1779 203° Southwest  Level Estimated
09:55AM 27.3044 115.1304 203° Southwest  Level Estimated
09:56AM 27.2067 115.0831 203° Southwest  Level Estimated
09:57AM 27.1090 115.0358 203° Southwest  Level Estimated
09:58AM 27.0113 114.9886 203° Southwest  Level Estimated
09:59AM 26.9136 114.9414 203° Southwest  Level Estimated
10:00AM 26.8159 114.8944 203° Southwest  Level Estimated
10:01AM 26.7181 114.8474 203° Southwest  Level Estimated
10:02AM 26.6203 114.8006 203° Southwest  Level Estimated
10:03AM 26.5226 114.7538 203° Southwest  Level Estimated
10:04AM 26.4248 114.7070 203° Southwest  Level Estimated
10:05AM 26.3269 114.6604 203° Southwest  Level Estimated
10:06AM 26.2291 114.6138 203° Southwest  Level Estimated
10:07AM 26.1313 114.5674 203° Southwest  Level Estimated
10:08AM 26.0334 114.5210 203° Southwest  Level Estimated
10:09AM 25.9355 114.4746 203° Southwest  Level Estimated
10:10AM 25.8376 114.4284 203° Southwest  Level Estimated
10:11AM 25.7397 114.3822 203° Southwest  Level Estimated
10:12AM 25.6418 114.3361 203° Southwest  Level Estimated
10:13AM 25.5439 114.2901 203° Southwest  Level Estimated
10:14AM 25.4459 114.2441 203° Southwest  Level Estimated
10:15AM 25.3480 114.1982 203° Southwest  Level Estimated
10:16AM 25.2500 114.1525 203° Southwest  Level Estimated
10:17AM 25.1520 114.1067 203° Southwest  Level Estimated
10:18AM 25.0540 114.0611 203° Southwest  Level Estimated
10:19AM 24.9560 114.0155 203° Southwest  Level Estimated
10:20AM 24.8882 113.9840 203° Southwest  Level Estimated
10:21AM 24.8204 113.9526 203° Southwest  Level Estimated
10:22AM 24.7526 113.9212 203° Southwest  Level Estimated
10:23AM 24.6848 113.8898 203° Southwest  Level Estimated
10:24AM 24.6170 113.8585 203° Southwest  Level Estimated
10:25AM 24.5492 113.8272 203° Southwest  Level Estimated
10:26AM 24.4814 113.7959 203° Southwest  Level Estimated
10:27AM 24.4136 113.7647 203° Southwest  Level Estimated
10:28AM 24.3458 113.7335 203° Southwest  Level Estimated
10:29AM 24.2779 113.7023 203° Southwest  Level Estimated
10:30AM 24.2101 113.6712 203° Southwest  Level Estimated
10:31AM 24.1422 113.6401 203° Southwest  Level Estimated
10:32AM 24.0744 113.6090 203° Southwest  Level Estimated
10:33AM 24.0065 113.5780 203° Southwest  Level Estimated
10:34AM 23.9387 113.5470 203° Southwest  Level Estimated
10:35AM 23.8708 113.5161 203° Southwest  Level Estimated
10:36AM 23.8029 113.4851 203° Southwest  Level Estimated
10:37AM 23.7350 113.4542 203° Southwest  Level Estimated
10:38AM 23.6672 113.4233 203° Southwest  Level Estimated
10:39AM 23.5993 113.3925 203° Southwest  Level Estimated
10:40AM 23.5314 113.3617 203° Southwest  Level Estimated
10:41AM 23.4634 113.3309 203° Southwest  Level Estimated
10:42AM 23.3955 113.3002 203° Southwest  Level Estimated
10:43AM 23.3924 113.2988 203° Southwest  Level Estimated
10:44AM 23.3924 113.2988 223° Southwest  Level Estimated
10:45AM 23.3924 113.2988 223° Southwest  Level Estimated
10:46AM 23.3924 113.2988 223° Southwest  Level Estimated
10:47AM 23.3924 113.2988 223° Southwest  Level Estimated
10:48AM 23.3924 113.2988 223° Southwest  Level Estimated
10:49AM 23.3924 113.2988 223° Southwest  Level Estimated
10:50AM 23.3924 113.2988 223° Southwest  Level Estimated
10:51AM 23.3924 113.2988 223° Southwest  Level Estimated
10:52AM 23.3924 113.2988 223° Southwest  Level Estimated
10:53AM 23.3924 113.2988 223° Southwest  Level Estimated
10:54AM 23.3924 113.2988 223° Southwest  Level Estimated
10:55AM 23.3924 113.2988 223° Southwest  Level Estimated
10:56AM 23.3924 113.2988 223° Southwest  Level Estimated
10:57AM 23.3924 113.2988 223° Southwest  Level Estimated
10:58AM 23.3924 113.2988 223° Southwest  Level Estimated
10:59AM 23.3924 113.2988 223° Southwest  Level Estimated
11:00AM 23.3924 113.2988 223° Southwest  Level Estimated
11:01AM 23.3924 113.2988 223° Southwest  Level Estimated